sensor_id;sensor_type;location;lat;lon;timestamp;pressure;altitude;pressure_sealevel;temperature;humidity
50632;BME280;49583;45.590;-122.498;2024-01-16T00:00:26;102346.13;;;-2.89;36.97
50632;BME280;49583;45.590;-122.498;2024-01-16T00:02:58;102366.89;;;-2.95;36.62
50632;BME280;49583;45.590;-122.498;2024-01-16T00:05:12;102348.84;;;-3.03;36.83
50632;BME280;49583;45.590;-122.498;2024-01-16T00:07:26;102357.81;;;-3.10;36.40
50632;BME280;49583;45.590;-122.498;2024-01-16T00:09:39;102344.27;;;-3.18;36.89
50632;BME280;49583;45.590;-122.498;2024-01-16T00:11:52;102344.68;;;-3.20;37.18
50632;BME280;49583;45.590;-122.498;2024-01-16T00:14:06;102347.80;;;-3.23;37.28
50632;BME280;49583;45.590;-122.498;2024-01-16T00:16:19;102330.98;;;-3.29;37.07
50632;BME280;49583;45.590;-122.498;2024-01-16T00:18:32;102347.02;;;-3.34;37.31
50632;BME280;49583;45.590;-122.498;2024-01-16T00:20:45;102335.83;;;-3.40;37.04
50632;BME280;49583;45.590;-122.498;2024-01-16T00:22:57;102339.58;;;-3.43;37.31
50632;BME280;49583;45.590;-122.498;2024-01-16T00:25:12;102345.48;;;-3.47;37.24
50632;BME280;49583;45.590;-122.498;2024-01-16T00:27:25;102342.44;;;-3.49;37.43
50632;BME280;49583;45.590;-122.498;2024-01-16T00:29:40;102335.16;;;-3.51;37.76
50632;BME280;49583;45.590;-122.498;2024-01-16T00:31:53;102345.02;;;-3.53;37.55
50632;BME280;49583;45.590;-122.498;2024-01-16T00:34:06;102339.23;;;-3.58;37.57
50632;BME280;49583;45.590;-122.498;2024-01-16T00:36:23;102333.86;;;-3.61;37.85
50632;BME280;49583;45.590;-122.498;2024-01-16T00:38:37;102325.87;;;-3.64;37.73
50632;BME280;49583;45.590;-122.498;2024-01-16T00:40:55;102334.13;;;-3.68;37.98
50632;BME280;49583;45.590;-122.498;2024-01-16T00:43:08;102325.38;;;-3.70;38.07
50632;BME280;49583;45.590;-122.498;2024-01-16T00:45:21;102334.70;;;-3.74;37.94
50632;BME280;49583;45.590;-122.498;2024-01-16T00:47:35;102320.33;;;-3.78;37.82
50632;BME280;49583;45.590;-122.498;2024-01-16T00:49:48;102319.30;;;-3.81;38.13
50632;BME280;49583;45.590;-122.498;2024-01-16T00:52:01;102312.25;;;-3.86;37.85
50632;BME280;49583;45.590;-122.498;2024-01-16T00:54:15;102316.66;;;-3.89;38.01
50632;BME280;49583;45.590;-122.498;2024-01-16T00:56:28;102312.73;;;-3.93;37.99
50632;BME280;49583;45.590;-122.498;2024-01-16T00:58:43;102315.38;;;-3.96;38.01
50632;BME280;49583;45.590;-122.498;2024-01-16T01:00:56;102307.54;;;-3.99;38.30
50632;BME280;49583;45.590;-122.498;2024-01-16T01:03:09;102297.23;;;-4.01;38.30
50632;BME280;49583;45.590;-122.498;2024-01-16T01:05:23;102292.15;;;-4.06;38.29
50632;BME280;49583;45.590;-122.498;2024-01-16T01:07:38;102286.91;;;-4.10;38.34
50632;BME280;49583;45.590;-122.498;2024-01-16T01:09:52;102290.42;;;-4.11;38.58
50632;BME280;49583;45.590;-122.498;2024-01-16T01:12:06;102288.69;;;-4.13;38.72
50632;BME280;49583;45.590;-122.498;2024-01-16T01:14:20;102294.42;;;-4.16;38.73
50632;BME280;49583;45.590;-122.498;2024-01-16T01:16:33;102300.95;;;-4.20;38.71
50632;BME280;49583;45.590;-122.498;2024-01-16T01:18:47;102309.44;;;-4.24;38.54
50632;BME280;49583;45.590;-122.498;2024-01-16T01:21:00;102319.21;;;-4.29;38.62
50632;BME280;49583;45.590;-122.498;2024-01-16T01:23:17;102312.15;;;-4.34;38.79
50632;BME280;49583;45.590;-122.498;2024-01-16T01:25:30;102314.09;;;-4.35;38.89
50632;BME280;49583;45.590;-122.498;2024-01-16T01:27:43;102306.10;;;-4.39;38.79
50632;BME280;49583;45.590;-122.498;2024-01-16T01:29:57;102311.69;;;-4.40;39.07
50632;BME280;49583;45.590;-122.498;2024-01-16T01:32:11;102310.86;;;-4.42;38.64
50632;BME280;49583;45.590;-122.498;2024-01-16T01:34:24;102311.80;;;-4.46;38.50
50632;BME280;49583;45.590;-122.498;2024-01-16T01:36:37;102309.67;;;-4.51;38.82
50632;BME280;49583;45.590;-122.498;2024-01-16T01:38:51;102296.15;;;-4.54;38.95
50632;BME280;49583;45.590;-122.498;2024-01-16T01:41:04;102290.87;;;-4.57;38.88
50632;BME280;49583;45.590;-122.498;2024-01-16T01:43:24;102289.73;;;-4.61;38.64
50632;BME280;49583;45.590;-122.498;2024-01-16T01:45:37;102284.77;;;-4.64;38.63
50632;BME280;49583;45.590;-122.498;2024-01-16T01:47:52;102283.79;;;-4.69;38.71
50632;BME280;49583;45.590;-122.498;2024-01-16T01:50:07;102285.89;;;-4.71;38.96
50632;BME280;49583;45.590;-122.498;2024-01-16T01:52:21;102285.30;;;-4.73;39.11
50632;BME280;49583;45.590;-122.498;2024-01-16T01:54:36;102291.61;;;-4.74;39.08
50632;BME280;49583;45.590;-122.498;2024-01-16T01:56:52;102294.33;;;-4.75;39.00
50632;BME280;49583;45.590;-122.498;2024-01-16T01:59:07;102312.63;;;-4.76;38.83
50632;BME280;49583;45.590;-122.498;2024-01-16T02:01:24;102300.34;;;-4.77;38.89
50632;BME280;49583;45.590;-122.498;2024-01-16T02:03:42;102296.15;;;-4.77;38.86
50632;BME280;49583;45.590;-122.498;2024-01-16T02:05:59;102298.48;;;-4.78;39.11
50632;BME280;49583;45.590;-122.498;2024-01-16T02:08:14;102292.08;;;-4.79;38.89
50632;BME280;49583;45.590;-122.498;2024-01-16T02:10:33;102293.73;;;-4.80;38.90
50632;BME280;49583;45.590;-122.498;2024-01-16T02:12:55;102289.70;;;-4.82;39.20
50632;BME280;49583;45.590;-122.498;2024-01-16T02:15:12;102291.46;;;-4.81;39.03
50632;BME280;49583;45.590;-122.498;2024-01-16T02:17:26;102298.20;;;-4.80;38.95
50632;BME280;49583;45.590;-122.498;2024-01-16T02:19:39;102305.45;;;-4.81;39.16
50632;BME280;49583;45.590;-122.498;2024-01-16T02:22:00;102314.20;;;-4.83;38.94
50632;BME280;49583;45.590;-122.498;2024-01-16T02:24:16;102303.77;;;-4.83;38.87
50632;BME280;49583;45.590;-122.498;2024-01-16T02:26:31;102319.55;;;-4.83;38.96
50632;BME280;49583;45.590;-122.498;2024-01-16T02:28:44;102306.98;;;-4.86;38.84
50632;BME280;49583;45.590;-122.498;2024-01-16T02:30:59;102294.55;;;-4.87;39.01
50632;BME280;49583;45.590;-122.498;2024-01-16T02:33:16;102300.86;;;-4.89;39.12
50632;BME280;49583;45.590;-122.498;2024-01-16T02:35:29;102299.63;;;-4.92;39.01
50632;BME280;49583;45.590;-122.498;2024-01-16T02:37:43;102299.56;;;-4.94;39.21
50632;BME280;49583;45.590;-122.498;2024-01-16T02:39:57;102295.34;;;-4.95;39.24
50632;BME280;49583;45.590;-122.498;2024-01-16T02:42:13;102303.02;;;-4.98;39.02
50632;BME280;49583;45.590;-122.498;2024-01-16T02:44:30;102296.48;;;-5.00;39.04
50632;BME280;49583;45.590;-122.498;2024-01-16T02:46:44;102309.09;;;-5.01;39.01
50632;BME280;49583;45.590;-122.498;2024-01-16T02:48:58;102308.95;;;-5.04;39.02
50632;BME280;49583;45.590;-122.498;2024-01-16T02:51:12;102305.25;;;-5.05;38.95
50632;BME280;49583;45.590;-122.498;2024-01-16T02:53:31;102300.23;;;-5.06;38.84
50632;BME280;49583;45.590;-122.498;2024-01-16T02:55:46;102299.58;;;-5.08;38.88
50632;BME280;49583;45.590;-122.498;2024-01-16T02:57:59;102302.27;;;-5.10;38.89
50632;BME280;49583;45.590;-122.498;2024-01-16T03:00:16;102296.55;;;-5.13;38.97
50632;BME280;49583;45.590;-122.498;2024-01-16T03:02:30;102293.38;;;-5.14;39.27
50632;BME280;49583;45.590;-122.498;2024-01-16T03:04:43;102285.30;;;-5.16;39.06
50632;BME280;49583;45.590;-122.498;2024-01-16T03:06:57;102273.92;;;-5.18;39.14
50632;BME280;49583;45.590;-122.498;2024-01-16T03:09:13;102273.20;;;-5.19;38.82
50632;BME280;49583;45.590;-122.498;2024-01-16T03:11:27;102253.77;;;-5.19;39.06
50632;BME280;49583;45.590;-122.498;2024-01-16T03:13:43;102260.39;;;-5.20;39.19
50632;BME280;49583;45.590;-122.498;2024-01-16T03:15:56;102261.91;;;-5.21;39.27
50632;BME280;49583;45.590;-122.498;2024-01-16T03:18:15;102248.53;;;-5.23;39.01
50632;BME280;49583;45.590;-122.498;2024-01-16T03:20:30;102253.71;;;-5.24;39.03
50632;BME280;49583;45.590;-122.498;2024-01-16T03:22:44;102245.05;;;-5.25;39.27
50632;BME280;49583;45.590;-122.498;2024-01-16T03:24:57;102240.81;;;-5.25;39.30
50632;BME280;49583;45.590;-122.498;2024-01-16T03:27:10;102242.83;;;-5.26;39.28
50632;BME280;49583;45.590;-122.498;2024-01-16T03:29:23;102247.08;;;-5.27;39.29
50632;BME280;49583;45.590;-122.498;2024-01-16T03:31:36;102247.10;;;-5.28;39.41
50632;BME280;49583;45.590;-122.498;2024-01-16T03:33:49;102247.14;;;-5.30;39.42
50632;BME280;49583;45.590;-122.498;2024-01-16T03:36:03;102253.05;;;-5.30;39.58
50632;BME280;49583;45.590;-122.498;2024-01-16T03:38:19;102262.64;;;-5.32;39.25
50632;BME280;49583;45.590;-122.498;2024-01-16T03:40:35;102255.61;;;-5.32;39.46
50632;BME280;49583;45.590;-122.498;2024-01-16T03:42:51;102264.57;;;-5.32;39.78
50632;BME280;49583;45.590;-122.498;2024-01-16T03:45:09;102270.27;;;-5.32;39.67
50632;BME280;49583;45.590;-122.498;2024-01-16T03:47:26;102265.84;;;-5.32;39.73
50632;BME280;49583;45.590;-122.498;2024-01-16T03:49:41;102256.52;;;-5.33;39.75
50632;BME280;49583;45.590;-122.498;2024-01-16T03:51:55;102250.09;;;-5.34;39.65
50632;BME280;49583;45.590;-122.498;2024-01-16T03:54:10;102248.48;;;-5.34;39.93
50632;BME280;49583;45.590;-122.498;2024-01-16T03:56:25;102260.58;;;-5.35;39.85
50632;BME280;49583;45.590;-122.498;2024-01-16T03:58:40;102260.95;;;-5.35;40.11
50632;BME280;49583;45.590;-122.498;2024-01-16T04:00:54;102252.56;;;-5.35;39.86
50632;BME280;49583;45.590;-122.498;2024-01-16T04:03:08;102244.60;;;-5.35;40.08
50632;BME280;49583;45.590;-122.498;2024-01-16T04:05:22;102247.48;;;-5.36;40.27
50632;BME280;49583;45.590;-122.498;2024-01-16T04:07:35;102238.77;;;-5.36;40.14
50632;BME280;49583;45.590;-122.498;2024-01-16T04:09:49;102231.79;;;-5.37;40.02
50632;BME280;49583;45.590;-122.498;2024-01-16T04:12:03;102220.29;;;-5.37;40.25
50632;BME280;49583;45.590;-122.498;2024-01-16T04:14:19;102213.35;;;-5.37;40.30
50632;BME280;49583;45.590;-122.498;2024-01-16T04:16:32;102215.19;;;-5.36;40.24
50632;BME280;49583;45.590;-122.498;2024-01-16T04:18:45;102214.86;;;-5.36;40.13
50632;BME280;49583;45.590;-122.498;2024-01-16T04:20:58;102202.30;;;-5.36;40.16
50632;BME280;49583;45.590;-122.498;2024-01-16T04:23:10;102201.64;;;-5.35;40.56
50632;BME280;49583;45.590;-122.498;2024-01-16T04:25:23;102205.05;;;-5.35;40.59
50632;BME280;49583;45.590;-122.498;2024-01-16T04:27:36;102207.23;;;-5.35;40.75
50632;BME280;49583;45.590;-122.498;2024-01-16T04:29:51;102198.80;;;-5.35;40.66
50632;BME280;49583;45.590;-122.498;2024-01-16T04:32:06;102180.68;;;-5.37;40.86
50632;BME280;49583;45.590;-122.498;2024-01-16T04:34:21;102174.52;;;-5.32;40.85
50632;BME280;49583;45.590;-122.498;2024-01-16T04:36:34;102168.41;;;-5.33;40.72
50632;BME280;49583;45.590;-122.498;2024-01-16T04:38:48;102169.35;;;-5.32;40.73
50632;BME280;49583;45.590;-122.498;2024-01-16T04:41:04;102176.54;;;-5.31;40.79
50632;BME280;49583;45.590;-122.498;2024-01-16T04:43:17;102171.08;;;-5.30;40.79
50632;BME280;49583;45.590;-122.498;2024-01-16T04:45:30;102177.56;;;-5.30;40.97
50632;BME280;49583;45.590;-122.498;2024-01-16T04:47:44;102175.87;;;-5.30;40.99
50632;BME280;49583;45.590;-122.498;2024-01-16T04:49:58;102170.63;;;-5.31;41.02
50632;BME280;49583;45.590;-122.498;2024-01-16T04:52:11;102169.96;;;-5.31;41.10
50632;BME280;49583;45.590;-122.498;2024-01-16T04:54:24;102172.96;;;-5.32;41.14
50632;BME280;49583;45.590;-122.498;2024-01-16T04:56:37;102176.83;;;-5.32;41.35
50632;BME280;49583;45.590;-122.498;2024-01-16T04:58:49;102177.13;;;-5.34;41.39
50632;BME280;49583;45.590;-122.498;2024-01-16T05:01:03;102183.77;;;-5.33;41.36
50632;BME280;49583;45.590;-122.498;2024-01-16T05:03:16;102182.51;;;-5.35;41.44
50632;BME280;49583;45.590;-122.498;2024-01-16T05:05:29;102180.18;;;-5.34;41.37
50632;BME280;49583;45.590;-122.498;2024-01-16T05:07:42;102170.46;;;-5.35;41.30
50632;BME280;49583;45.590;-122.498;2024-01-16T05:09:57;102182.00;;;-5.34;41.32
50632;BME280;49583;45.590;-122.498;2024-01-16T05:12:10;102179.79;;;-5.35;41.38
50632;BME280;49583;45.590;-122.498;2024-01-16T05:14:23;102177.08;;;-5.36;41.60
50632;BME280;49583;45.590;-122.498;2024-01-16T05:16:37;102168.75;;;-5.38;41.49
50632;BME280;49583;45.590;-122.498;2024-01-16T05:18:49;102170.30;;;-5.39;41.51
50632;BME280;49583;45.590;-122.498;2024-01-16T05:21:03;102162.72;;;-5.41;41.64
50632;BME280;49583;45.590;-122.498;2024-01-16T05:23:18;102151.13;;;-5.40;41.65
50632;BME280;49583;45.590;-122.498;2024-01-16T05:25:31;102153.41;;;-5.41;41.71
50632;BME280;49583;45.590;-122.498;2024-01-16T05:27:44;102143.38;;;-5.43;41.93
50632;BME280;49583;45.590;-122.498;2024-01-16T05:29:57;102140.09;;;-5.44;41.80
50632;BME280;49583;45.590;-122.498;2024-01-16T05:32:11;102144.33;;;-5.45;41.79
50632;BME280;49583;45.590;-122.498;2024-01-16T05:34:24;102132.70;;;-5.45;42.11
50632;BME280;49583;45.590;-122.498;2024-01-16T05:36:36;102139.93;;;-5.44;42.10
50632;BME280;49583;45.590;-122.498;2024-01-16T05:38:49;102137.75;;;-5.44;42.24
50632;BME280;49583;45.590;-122.498;2024-01-16T05:41:03;102136.36;;;-5.44;42.23
50632;BME280;49583;45.590;-122.498;2024-01-16T05:43:17;102137.05;;;-5.44;42.28
50632;BME280;49583;45.590;-122.498;2024-01-16T05:45:29;102130.86;;;-5.46;42.37
50632;BME280;49583;45.590;-122.498;2024-01-16T05:47:42;102141.49;;;-5.44;42.40
50632;BME280;49583;45.590;-122.498;2024-01-16T05:49:55;102140.10;;;-5.44;42.53
50632;BME280;49583;45.590;-122.498;2024-01-16T05:52:08;102154.38;;;-5.47;42.48
50632;BME280;49583;45.590;-122.498;2024-01-16T05:54:21;102171.84;;;-5.43;42.44
50632;BME280;49583;45.590;-122.498;2024-01-16T05:56:33;102179.35;;;-5.44;42.46
50632;BME280;49583;45.590;-122.498;2024-01-16T05:58:46;102187.58;;;-5.44;42.36
50632;BME280;49583;45.590;-122.498;2024-01-16T06:00:58;102182.96;;;-5.44;42.63
50632;BME280;49583;45.590;-122.498;2024-01-16T06:03:12;102173.85;;;-5.45;42.59
50632;BME280;49583;45.590;-122.498;2024-01-16T06:05:24;102163.95;;;-5.46;42.72
50632;BME280;49583;45.590;-122.498;2024-01-16T06:07:37;102163.39;;;-5.47;42.56
50632;BME280;49583;45.590;-122.498;2024-01-16T06:09:50;102155.75;;;-5.48;42.52
50632;BME280;49583;45.590;-122.498;2024-01-16T06:12:03;102162.27;;;-5.50;42.69
50632;BME280;49583;45.590;-122.498;2024-01-16T06:14:16;102158.60;;;-5.53;42.57
50632;BME280;49583;45.590;-122.498;2024-01-16T06:16:31;102156.74;;;-5.52;42.79
50632;BME280;49583;45.590;-122.498;2024-01-16T06:18:44;102147.27;;;-5.53;42.91
50632;BME280;49583;45.590;-122.498;2024-01-16T06:20:57;102138.56;;;-5.55;43.14
50632;BME280;49583;45.590;-122.498;2024-01-16T06:23:10;102137.84;;;-5.57;42.86
50632;BME280;49583;45.590;-122.498;2024-01-16T06:25:23;102141.19;;;-5.58;42.93
50632;BME280;49583;45.590;-122.498;2024-01-16T06:27:36;102140.16;;;-5.58;43.18
50632;BME280;49583;45.590;-122.498;2024-01-16T06:29:49;102146.17;;;-5.58;43.05
50632;BME280;49583;45.590;-122.498;2024-01-16T06:32:02;102151.71;;;-5.57;43.09
50632;BME280;49583;45.590;-122.498;2024-01-16T06:34:15;102153.64;;;-5.57;43.18
50632;BME280;49583;45.590;-122.498;2024-01-16T06:36:28;102147.64;;;-5.56;43.26
50632;BME280;49583;45.590;-122.498;2024-01-16T06:38:42;102138.48;;;-5.55;43.53
50632;BME280;49583;45.590;-122.498;2024-01-16T06:40:55;102133.43;;;-5.55;43.35
50632;BME280;49583;45.590;-122.498;2024-01-16T06:43:08;102126.12;;;-5.55;43.40
50632;BME280;49583;45.590;-122.498;2024-01-16T06:45:21;102129.40;;;-5.54;43.45
50632;BME280;49583;45.590;-122.498;2024-01-16T06:47:33;102132.96;;;-5.51;43.39
50632;BME280;49583;45.590;-122.498;2024-01-16T06:49:46;102128.77;;;-5.51;43.51
50632;BME280;49583;45.590;-122.498;2024-01-16T06:51:58;102135.57;;;-5.50;43.51
50632;BME280;49583;45.590;-122.498;2024-01-16T06:54:11;102134.72;;;-5.50;43.52
50632;BME280;49583;45.590;-122.498;2024-01-16T06:56:24;102135.94;;;-5.50;43.37
50632;BME280;49583;45.590;-122.498;2024-01-16T06:58:37;102132.19;;;-5.49;43.43
50632;BME280;49583;45.590;-122.498;2024-01-16T07:00:50;102134.28;;;-5.49;43.28
50632;BME280;49583;45.590;-122.498;2024-01-16T07:03:03;102132.52;;;-5.50;43.43
50632;BME280;49583;45.590;-122.498;2024-01-16T07:05:16;102130.52;;;-5.51;43.42
50632;BME280;49583;45.590;-122.498;2024-01-16T07:07:29;102132.72;;;-5.51;43.30
50632;BME280;49583;45.590;-122.498;2024-01-16T07:09:42;102126.64;;;-5.52;43.44
50632;BME280;49583;45.590;-122.498;2024-01-16T07:11:54;102132.40;;;-5.54;43.46
50632;BME280;49583;45.590;-122.498;2024-01-16T07:14:09;102130.68;;;-5.55;43.43
50632;BME280;49583;45.590;-122.498;2024-01-16T07:16:22;102131.42;;;-5.57;43.39
50632;BME280;49583;45.590;-122.498;2024-01-16T07:18:35;102141.34;;;-5.58;43.34
50632;BME280;49583;45.590;-122.498;2024-01-16T07:20:49;102144.19;;;-5.59;43.61
50632;BME280;49583;45.590;-122.498;2024-01-16T07:23:02;102147.31;;;-5.60;43.62
50632;BME280;49583;45.590;-122.498;2024-01-16T07:25:15;102137.75;;;-5.61;43.53
50632;BME280;49583;45.590;-122.498;2024-01-16T07:27:28;102128.95;;;-5.64;43.58
50632;BME280;49583;45.590;-122.498;2024-01-16T07:29:41;102122.20;;;-5.66;43.65
50632;BME280;49583;45.590;-122.498;2024-01-16T07:31:53;102116.46;;;-5.68;43.78
50632;BME280;49583;45.590;-122.498;2024-01-16T07:34:07;102115.44;;;-5.68;43.73
50632;BME280;49583;45.590;-122.498;2024-01-16T07:36:20;102115.32;;;-5.70;43.69
50632;BME280;49583;45.590;-122.498;2024-01-16T07:38:32;102113.23;;;-5.71;43.79
50632;BME280;49583;45.590;-122.498;2024-01-16T07:40:46;102111.83;;;-5.74;43.89
50632;BME280;49583;45.590;-122.498;2024-01-16T07:42:59;102093.16;;;-5.75;43.92
50632;BME280;49583;45.590;-122.498;2024-01-16T07:45:12;102091.60;;;-5.76;43.98
50632;BME280;49583;45.590;-122.498;2024-01-16T07:47:25;102091.52;;;-5.75;44.00
50632;BME280;49583;45.590;-122.498;2024-01-16T07:49:38;102100.98;;;-5.74;43.98
50632;BME280;49583;45.590;-122.498;2024-01-16T07:51:52;102094.39;;;-5.74;44.17
50632;BME280;49583;45.590;-122.498;2024-01-16T07:54:15;102109.35;;;-5.73;44.06
50632;BME280;49583;45.590;-122.498;2024-01-16T07:56:28;102102.43;;;-5.72;44.07
50632;BME280;49583;45.590;-122.498;2024-01-16T07:58:41;102093.52;;;-5.72;44.12
50632;BME280;49583;45.590;-122.498;2024-01-16T08:00:53;102088.02;;;-5.72;44.14
50632;BME280;49583;45.590;-122.498;2024-01-16T08:03:07;102084.23;;;-5.72;44.19
50632;BME280;49583;45.590;-122.498;2024-01-16T08:05:21;102082.52;;;-5.74;44.26
50632;BME280;49583;45.590;-122.498;2024-01-16T08:07:35;102074.34;;;-5.73;44.06
50632;BME280;49583;45.590;-122.498;2024-01-16T08:09:48;102062.72;;;-5.73;44.18
50632;BME280;49583;45.590;-122.498;2024-01-16T08:12:01;102052.36;;;-5.72;44.30
50632;BME280;49583;45.590;-122.498;2024-01-16T08:14:14;102057.17;;;-5.72;44.17
50632;BME280;49583;45.590;-122.498;2024-01-16T08:16:27;102065.94;;;-5.72;44.16
50632;BME280;49583;45.590;-122.498;2024-01-16T08:18:40;102076.03;;;-5.71;44.16
50632;BME280;49583;45.590;-122.498;2024-01-16T08:20:53;102081.45;;;-5.72;44.08
50632;BME280;49583;45.590;-122.498;2024-01-16T08:23:05;102073.13;;;-5.72;43.92
50632;BME280;49583;45.590;-122.498;2024-01-16T08:25:18;102076.69;;;-5.73;44.19
50632;BME280;49583;45.590;-122.498;2024-01-16T08:27:31;102077.06;;;-5.73;44.26
50632;BME280;49583;45.590;-122.498;2024-01-16T08:29:44;102067.70;;;-5.74;44.11
50632;BME280;49583;45.590;-122.498;2024-01-16T08:31:58;102053.49;;;-5.74;44.26
50632;BME280;49583;45.590;-122.498;2024-01-16T08:34:11;102039.96;;;-5.74;44.22
50632;BME280;49583;45.590;-122.498;2024-01-16T08:36:24;102032.04;;;-5.74;44.36
50632;BME280;49583;45.590;-122.498;2024-01-16T08:38:36;102028.09;;;-5.76;44.30
50632;BME280;49583;45.590;-122.498;2024-01-16T08:40:49;102026.52;;;-5.78;44.05
50632;BME280;49583;45.590;-122.498;2024-01-16T08:43:02;102032.84;;;-5.80;43.91
50632;BME280;49583;45.590;-122.498;2024-01-16T08:45:14;102048.27;;;-5.80;44.11
50632;BME280;49583;45.590;-122.498;2024-01-16T08:47:27;102039.94;;;-5.81;44.07
50632;BME280;49583;45.590;-122.498;2024-01-16T08:49:40;102047.95;;;-5.80;44.28
50632;BME280;49583;45.590;-122.498;2024-01-16T08:51:53;102057.22;;;-5.79;44.29
50632;BME280;49583;45.590;-122.498;2024-01-16T08:54:06;102049.16;;;-5.77;44.13
50632;BME280;49583;45.590;-122.498;2024-01-16T08:56:18;102038.69;;;-5.76;44.27
50632;BME280;49583;45.590;-122.498;2024-01-16T08:58:31;102023.70;;;-5.76;44.04
50632;BME280;49583;45.590;-122.498;2024-01-16T09:00:46;102004.34;;;-5.76;43.73
50632;BME280;49583;45.590;-122.498;2024-01-16T09:02:59;101997.20;;;-5.75;43.86
50632;BME280;49583;45.590;-122.498;2024-01-16T09:05:14;102004.29;;;-5.74;44.06
50632;BME280;49583;45.590;-122.498;2024-01-16T09:07:27;102005.61;;;-5.75;43.85
50632;BME280;49583;45.590;-122.498;2024-01-16T09:09:39;102007.48;;;-5.74;43.85
50632;BME280;49583;45.590;-122.498;2024-01-16T09:11:52;102010.35;;;-5.73;43.88
50632;BME280;49583;45.590;-122.498;2024-01-16T09:14:05;102015.13;;;-5.71;43.90
50632;BME280;49583;45.590;-122.498;2024-01-16T09:16:17;102018.56;;;-5.69;43.87
50632;BME280;49583;45.590;-122.498;2024-01-16T09:18:30;102011.80;;;-5.66;43.66
50632;BME280;49583;45.590;-122.498;2024-01-16T09:20:44;102012.60;;;-5.65;43.70
50632;BME280;49583;45.590;-122.498;2024-01-16T09:23:00;102011.52;;;-5.63;43.55
50632;BME280;49583;45.590;-122.498;2024-01-16T09:25:13;102008.52;;;-5.62;43.44
50632;BME280;49583;45.590;-122.498;2024-01-16T09:27:26;102007.03;;;-5.60;43.44
50632;BME280;49583;45.590;-122.498;2024-01-16T09:29:38;102000.55;;;-5.61;43.32
50632;BME280;49583;45.590;-122.498;2024-01-16T09:31:51;102003.41;;;-5.60;43.53
50632;BME280;49583;45.590;-122.498;2024-01-16T09:34:04;102007.77;;;-5.61;43.40
50632;BME280;49583;45.590;-122.498;2024-01-16T09:36:18;101999.02;;;-5.60;43.39
50632;BME280;49583;45.590;-122.498;2024-01-16T09:38:31;101996.38;;;-5.62;43.37
50632;BME280;49583;45.590;-122.498;2024-01-16T09:40:44;101994.05;;;-5.61;43.36
50632;BME280;49583;45.590;-122.498;2024-01-16T09:42:57;102002.35;;;-5.60;43.53
50632;BME280;49583;45.590;-122.498;2024-01-16T09:45:11;101981.16;;;-5.60;43.50
50632;BME280;49583;45.590;-122.498;2024-01-16T09:47:28;101983.50;;;-5.60;43.50
50632;BME280;49583;45.590;-122.498;2024-01-16T09:49:41;101978.66;;;-5.61;43.40
50632;BME280;49583;45.590;-122.498;2024-01-16T09:51:56;101981.21;;;-5.62;43.66
50632;BME280;49583;45.590;-122.498;2024-01-16T09:54:09;101975.17;;;-5.62;43.72
50632;BME280;49583;45.590;-122.498;2024-01-16T09:56:24;101974.08;;;-5.63;43.86
50632;BME280;49583;45.590;-122.498;2024-01-16T09:58:38;101979.48;;;-5.65;43.64
50632;BME280;49583;45.590;-122.498;2024-01-16T10:00:51;101981.52;;;-5.66;43.85
50632;BME280;49583;45.590;-122.498;2024-01-16T10:03:05;101974.13;;;-5.68;43.92
50632;BME280;49583;45.590;-122.498;2024-01-16T10:05:18;101979.89;;;-5.69;43.74
50632;BME280;49583;45.590;-122.498;2024-01-16T10:07:32;101973.24;;;-5.70;43.89
50632;BME280;49583;45.590;-122.498;2024-01-16T10:09:45;101972.23;;;-5.70;43.99
50632;BME280;49583;45.590;-122.498;2024-01-16T10:11:58;101988.57;;;-5.72;43.91
50632;BME280;49583;45.590;-122.498;2024-01-16T10:14:12;101976.46;;;-5.75;43.87
50632;BME280;49583;45.590;-122.498;2024-01-16T10:16:28;101972.19;;;-5.74;44.00
50632;BME280;49583;45.590;-122.498;2024-01-16T10:19:05;101971.16;;;-5.74;44.13
50632;BME280;49583;45.590;-122.498;2024-01-16T10:21:24;101974.95;;;-5.75;44.03
50632;BME280;49583;45.590;-122.498;2024-01-16T10:23:42;101985.70;;;-5.75;44.28
50632;BME280;49583;45.590;-122.498;2024-01-16T10:28:39;101986.54;;;-5.72;43.96
50632;BME280;49583;45.590;-122.498;2024-01-16T10:31:04;101986.76;;;-5.74;44.32
50632;BME280;49583;45.590;-122.498;2024-01-16T10:33:18;101975.02;;;-5.74;44.23
50632;BME280;49583;45.590;-122.498;2024-01-16T10:35:31;101979.91;;;-5.74;44.28
50632;BME280;49583;45.590;-122.498;2024-01-16T10:37:48;101971.20;;;-5.74;44.35
50632;BME280;49583;45.590;-122.498;2024-01-16T10:40:02;101972.27;;;-5.74;44.55
50632;BME280;49583;45.590;-122.498;2024-01-16T10:42:17;101972.15;;;-5.75;44.42
50632;BME280;49583;45.590;-122.498;2024-01-16T10:44:30;101964.27;;;-5.75;44.39
50632;BME280;49583;45.590;-122.498;2024-01-16T10:46:44;101963.48;;;-5.75;44.31
50632;BME280;49583;45.590;-122.498;2024-01-16T10:49:03;101969.38;;;-5.78;44.13
50632;BME280;49583;45.590;-122.498;2024-01-16T10:51:17;101984.60;;;-5.77;44.39
50632;BME280;49583;45.590;-122.498;2024-01-16T10:53:32;101987.08;;;-5.78;44.18
50632;BME280;49583;45.590;-122.498;2024-01-16T10:55:51;101989.94;;;-5.79;44.09
50632;BME280;49583;45.590;-122.498;2024-01-16T10:58:05;101989.65;;;-5.78;44.28
50632;BME280;49583;45.590;-122.498;2024-01-16T11:00:23;101994.90;;;-5.77;44.18
50632;BME280;49583;45.590;-122.498;2024-01-16T11:02:40;101981.89;;;-5.77;44.23
50632;BME280;49583;45.590;-122.498;2024-01-16T11:04:56;101979.88;;;-5.76;44.44
50632;BME280;49583;45.590;-122.498;2024-01-16T11:07:10;101970.08;;;-5.78;44.29
50632;BME280;49583;45.590;-122.498;2024-01-16T11:09:26;101973.96;;;-5.76;44.53
50632;BME280;49583;45.590;-122.498;2024-01-16T11:11:40;101969.27;;;-5.77;44.52
50632;BME280;49583;45.590;-122.498;2024-01-16T11:13:54;101966.38;;;-5.77;44.36
50632;BME280;49583;45.590;-122.498;2024-01-16T11:16:07;101955.22;;;-5.78;44.43